Aviosuperficie "San Mauro"

IT-0372 · Friuli Venezia Giulia, 意大利

METAR IT-0372 · Aviosuperficie "San Mauro"

罗盘
风向 的 风向 的 风向 到 风向 260° Aviosuperficie "San Mauro" 9/27
风: 3 kt, 1 beaufort

3 kt

1 kt
改变
0 1.000 2.000 3.000 4.000 5.000
FEW 300 ft
SCT 800 ft
BKN 1.500 ft
METAR LOWK 051850Z 26003KT 220V300 6000 RA FEW003 SCT008 BKN015 04/04 Q1017 RETS TEMPO -RA BKN008

METAR Aviosuperficie "San Mauro" - IT-0372

Aviosuperficie "San Mauro"是,意大利中的小机场。 该机场有2条跑道: 9/27 和 10/28. 该领域的国际民航组织标志是IT-0372.

这份报告是针对2022年12月5日 19:50, 当地时间在Klagenfurt Airport进行的。

机场观察

风向为260°,速度为3 kt。 风向在220°和300°之间变化。

可见度为6 km。

有几云在300 ft的高度, 疏云,零星散落的云朵在800 ft的高度 和 碎云在1.500 ft的高度。 破损或更高的上限为1.500 ft。

当前天气为雨。 温度为4 °C,阵风为1 °C。 露点为4 °C,相对湿度为100%。 海平面上的气压为1017 hPa (QNH)。 最近是雷暴 。

发展趋势

  • 暂时的

    可变方向的风很小或没有。 重大天气:光 雨。 碎云在800 ft的高度.

白天

今天,太阳从07:32升起,在16:21降落。 这适用于Aviosuperficie "San Mauro",世界夏令时可能有所不同。 当地时间与世界标准时间之间的时差为+1 小时。 当前,没有夏令时有效。

公司介绍

我们没有关于这个机场的公司信息。

体会

到Vliegles.nl去找飞行课程,跳伞和其他飞行体验。 浏览页面,了解Aviosuperficie "San Mauro"附近所有可用的活动。 你也可以使用搜索功能来寻找你所在地附近的特定飞行课程、跳伞或其他飞行体验。

跑道

Id 标题 侧风 逆风 侧风 %
9/27 090°-270° 3 kt 17 %
10/28 100°-280° 1 kt 3 kt 34 %

逆风成分最大的方向会被突出显示,并用于横风计算。 这并不一定意味着这个方向在使用。

乌云

300 ft FEW 几云
800 ft SCT 疏云,零星散落的云朵
1.500 ft BKN 碎云
800 ft BKN 暂时的 碎云

温度 & 天气

天气
最近的 雷暴
温度 4 °C
露点 4 °C
相对湿度 100%
风寒 1 °C
Kp-index 0 (0-9)

白天

日出
07:30 (11:19)
中午
11:53
日落
16:15

小工具

你想在你的网站上有一个关于Aviosuperficie "San Mauro"的当前航空天气(METAR)的小部件吗?

显示HTML代码

我们和第三方通过cookies跟踪您在我们网站上的互联网行为。如果你继续,我们认为你同意我们的饼干政策